createdAt,value
2019-06-07T00:01:46.236Z,101555.91
2019-06-07T00:03:48.247Z,101548.02
2019-06-07T00:05:50.255Z,101542.00
2019-06-07T00:07:52.276Z,101534.53
2019-06-07T00:09:54.354Z,101526.80
2019-06-07T00:11:56.357Z,101531.05
2019-06-07T00:14:01.173Z,101539.12
2019-06-07T00:16:03.206Z,101534.16
2019-06-07T00:18:05.455Z,101529.12
2019-06-07T00:20:09.334Z,101527.17
2019-06-07T00:22:18.505Z,101529.33
2019-06-07T00:24:16.880Z,101528.52
2019-06-07T00:26:21.291Z,101527.61
2019-06-07T00:28:24.068Z,101527.13
2019-06-07T00:30:48.840Z,101528.67
2019-06-07T00:32:30.087Z,101533.02
2019-06-07T00:34:32.188Z,101527.56
2019-06-07T00:36:34.197Z,101521.13
2019-06-07T00:38:36.318Z,101523.41
2019-06-07T00:40:38.524Z,101523.33
2019-06-07T00:42:40.512Z,101517.61
2019-06-07T00:44:42.554Z,101517.30
2019-06-07T00:46:44.619Z,101515.59
2019-06-07T00:48:46.587Z,101519.06
2019-06-07T00:50:48.631Z,101518.59
2019-06-07T00:54:54.634Z,101514.84
2019-06-07T00:56:56.636Z,101510.86
2019-06-07T00:59:10.856Z,101512.34
2019-06-07T01:01:02.877Z,101509.30
2019-06-07T01:03:04.845Z,101509.97
2019-06-07T01:05:07.363Z,101502.14
2019-06-07T01:07:09.009Z,101513.64
2019-06-07T01:09:12.897Z,101519.03
2019-06-07T01:11:15.931Z,101523.52
2019-06-07T01:13:19.458Z,101524.91
2019-06-07T01:15:28.537Z,101515.70
2019-06-07T01:17:49.709Z,101514.18
2019-06-07T01:19:34.528Z,101509.84
2019-06-07T01:21:36.117Z,101507.27
2019-06-07T01:25:42.132Z,101505.23
2019-06-07T01:27:44.340Z,101510.85
2019-06-07T01:29:46.661Z,101504.60
2019-06-07T01:31:48.989Z,101502.26
2019-06-07T01:33:51.524Z,101499.80
2019-06-07T01:35:53.641Z,101500.61
2019-06-07T01:37:55.883Z,101499.22
2019-06-07T01:39:57.931Z,101497.36
2019-06-07T01:42:00.122Z,101503.38
2019-06-07T01:44:02.142Z,101505.98
2019-06-07T01:46:04.180Z,101498.34
2019-06-07T01:48:06.392Z,101495.44
2019-06-07T01:50:08.751Z,101497.79
2019-06-07T01:52:10.782Z,101499.02
2019-06-07T01:54:49.327Z,101498.36
2019-06-07T01:56:18.582Z,101501.78
2019-06-07T01:58:22.257Z,101501.36
2019-06-07T02:00:26.605Z,101499.50
2019-06-07T02:02:31.626Z,101500.16
2019-06-07T02:04:33.710Z,101500.97
2019-06-07T02:06:37.344Z,101497.64
2019-06-07T02:08:39.306Z,101493.64
2019-06-07T02:10:41.327Z,101486.48
2019-06-07T02:12:43.786Z,101479.91
2019-06-07T02:14:45.443Z,101476.33
2019-06-07T02:16:47.386Z,101478.43
2019-06-07T02:19:01.525Z,101476.00
2019-06-07T02:20:53.486Z,101474.62
2019-06-07T02:22:55.469Z,101476.18
2019-06-07T02:25:34.543Z,101463.08
2019-06-07T02:27:01.410Z,101466.50
2019-06-07T02:29:03.803Z,101460.55
2019-06-07T02:31:05.805Z,101458.84
2019-06-07T02:33:07.797Z,101452.11
2019-06-07T02:35:10.044Z,101455.27
2019-06-07T02:37:12.020Z,101453.73
2019-06-07T02:39:14.022Z,101450.82
2019-06-07T02:41:16.052Z,101447.72
2019-06-07T02:43:18.061Z,101452.34
2019-06-07T02:45:20.268Z,101448.05
2019-06-07T02:47:22.803Z,101444.63
2019-06-07T02:49:28.407Z,101439.67
2019-06-07T02:51:40.021Z,101437.87
2019-06-07T02:53:39.511Z,101436.42
2019-06-07T02:56:26.531Z,101428.12
2019-06-07T02:57:42.334Z,101430.80
2019-06-07T03:00:06.849Z,101428.12
2019-06-07T03:01:49.909Z,101430.09
2019-06-07T03:03:52.160Z,101432.09
2019-06-07T03:05:55.478Z,101432.09
2019-06-07T03:07:57.796Z,101425.36
2019-06-07T03:10:00.182Z,101425.03
2019-06-07T03:12:03.094Z,101419.75
2019-06-07T03:14:05.426Z,101418.69
2019-06-07T03:16:09.392Z,101424.05
2019-06-07T03:18:41.238Z,101423.80
2019-06-07T03:20:43.800Z,101412.51
2019-06-07T03:22:47.763Z,101413.36
2019-06-07T03:24:49.941Z,101414.38
2019-06-07T03:28:56.691Z,101400.50
2019-06-07T03:31:02.804Z,101402.54
2019-06-07T03:33:02.993Z,101401.16
2019-06-07T03:35:05.626Z,101400.50
2019-06-07T03:37:07.669Z,101403.41
2019-06-07T03:39:09.642Z,101406.35
2019-06-07T03:41:11.688Z,101405.78
2019-06-07T03:43:13.859Z,101399.83
2019-06-07T03:45:15.848Z,101395.02
2019-06-07T03:47:17.861Z,101392.77
2019-06-07T03:49:20.090Z,101395.10
2019-06-07T03:51:25.360Z,101394.14
2019-06-07T03:53:29.231Z,101395.77
2019-06-07T03:55:31.224Z,101400.63
2019-06-07T03:58:24.848Z,101400.87
2019-06-07T03:59:41.329Z,101399.63
2019-06-07T04:01:42.839Z,101393.77
2019-06-07T04:03:51.419Z,101382.55
2019-06-07T04:05:50.364Z,101380.25
2019-06-07T04:07:52.524Z,101378.63
2019-06-07T04:09:55.026Z,101374.83
2019-06-07T04:11:57.000Z,101379.42
2019-06-07T04:13:59.069Z,101375.84
2019-06-07T04:16:01.059Z,101375.31
2019-06-07T04:18:04.151Z,101368.95
2019-06-07T04:20:06.436Z,101365.94
2019-06-07T04:22:08.528Z,101365.03
2019-06-07T04:24:10.826Z,101367.59
2019-06-07T04:26:12.796Z,101357.44
2019-06-07T04:28:14.865Z,101357.68
2019-06-07T04:30:37.282Z,101346.38
2019-06-07T04:32:44.667Z,101361.56
2019-06-07T04:34:44.390Z,101363.08
2019-06-07T04:36:58.752Z,101359.88
2019-06-07T04:38:51.591Z,101357.61
2019-06-07T04:40:53.647Z,101358.31
2019-06-07T04:42:56.031Z,101360.23
2019-06-07T04:44:58.630Z,101359.66
2019-06-07T04:47:01.094Z,101350.55
2019-06-07T04:49:03.815Z,101357.20
2019-06-07T04:51:07.578Z,101346.99
2019-06-07T04:53:09.604Z,101343.66
2019-06-07T04:55:11.667Z,101344.12
2019-06-07T04:57:13.664Z,101338.41
2019-06-07T05:00:00.249Z,101336.34
2019-06-07T05:01:27.195Z,101328.29
2019-06-07T05:03:23.536Z,101322.80
2019-06-07T05:05:25.649Z,101327.41
2019-06-07T05:07:27.663Z,101321.98
2019-06-07T05:09:30.124Z,101324.12
2019-06-07T05:11:33.923Z,101326.20
2019-06-07T05:13:39.042Z,101322.20
2019-06-07T05:15:42.212Z,101316.88
2019-06-07T05:17:45.187Z,101323.33
2019-06-07T05:19:47.279Z,101318.22
2019-06-07T05:22:03.564Z,101311.73
2019-06-07T05:24:06.662Z,101311.16
2019-06-07T05:25:57.639Z,101315.19
2019-06-07T05:27:59.636Z,101301.11
2019-06-07T05:30:24.281Z,101298.45
2019-06-07T05:32:05.685Z,101302.16
2019-06-07T05:34:07.910Z,101297.62
2019-06-07T05:36:09.960Z,101288.16
2019-06-07T05:38:12.026Z,101287.61
2019-06-07T05:40:18.816Z,101286.95
2019-06-07T05:42:20.866Z,101285.13
2019-06-07T05:44:22.850Z,101281.09
2019-06-07T05:46:25.110Z,101285.64
2019-06-07T05:48:27.204Z,101278.45
2019-06-07T05:52:44.348Z,101285.38
2019-06-07T05:54:46.817Z,101281.97
2019-06-07T05:56:48.049Z,101279.38
2019-06-07T05:58:50.085Z,101267.16
2019-06-07T06:00:52.177Z,101262.48
2019-06-07T06:03:04.633Z,101270.94
2019-06-07T06:04:58.092Z,101263.78
2019-06-07T06:07:00.106Z,101265.38
2019-06-07T06:09:13.250Z,101265.15
2019-06-07T06:11:07.256Z,101254.42
2019-06-07T06:13:09.295Z,101258.41
2019-06-07T06:15:11.594Z,101251.46
2019-06-07T06:17:13.644Z,101257.20
2019-06-07T06:19:15.649Z,101256.12
2019-06-07T06:21:20.206Z,101252.95
2019-06-07T06:23:21.697Z,101247.89
2019-06-07T06:25:33.645Z,101245.92
2019-06-07T06:28:03.448Z,101245.67
2019-06-07T06:29:31.882Z,101245.30
2019-06-07T06:31:33.960Z,101240.26
2019-06-07T06:33:37.347Z,101242.94
2019-06-07T06:35:39.890Z,101233.87
2019-06-07T06:37:44.270Z,101235.59
2019-06-07T06:39:48.209Z,101230.73
2019-06-07T06:41:58.790Z,101232.84
2019-06-07T06:43:54.642Z,101233.45
2019-06-07T06:45:56.685Z,101238.48
2019-06-07T06:47:58.697Z,101231.69
2019-06-07T06:50:02.057Z,101232.05
2019-06-07T06:52:04.332Z,101217.78
2019-06-07T06:54:06.322Z,101210.84
2019-06-07T06:56:08.302Z,101207.89
2019-06-07T06:58:10.429Z,101202.83
2019-06-07T07:00:13.299Z,101204.25
2019-06-07T07:02:15.300Z,101192.25
2019-06-07T07:04:17.515Z,101193.44
2019-06-07T07:06:26.290Z,101200.61
2019-06-07T07:08:27.005Z,101214.42
2019-06-07T07:10:38.764Z,101202.14
2019-06-07T07:12:40.762Z,101186.77
2019-06-07T07:14:45.532Z,101186.77
2019-06-07T07:16:50.046Z,101191.83
2019-06-07T07:18:52.900Z,101176.53
2019-06-07T07:20:57.412Z,101177.17
2019-06-07T07:22:59.646Z,101179.43
2019-06-07T07:25:01.621Z,101171.29
2019-06-07T07:27:04.965Z,101182.37
2019-06-07T07:29:07.212Z,101186.13
2019-06-07T07:31:09.221Z,101178.70
2019-06-07T07:33:11.216Z,101164.47
2019-06-07T07:35:13.432Z,101163.66
2019-06-07T07:37:15.661Z,101160.30
2019-06-07T07:39:17.662Z,101159.03
2019-06-07T07:41:19.747Z,101170.97
2019-06-07T07:43:22.296Z,101150.47
2019-06-07T07:45:24.395Z,101151.95
2019-06-07T07:47:26.434Z,101153.89
2019-06-07T07:49:28.448Z,101154.48
2019-06-07T07:51:32.173Z,101143.14
2019-06-07T07:53:48.499Z,101142.89
2019-06-07T07:55:39.263Z,101150.44
2019-06-07T07:57:41.282Z,101136.90
2019-06-07T08:00:00.539Z,101137.16
2019-06-07T08:01:48.659Z,101130.95
2019-06-07T08:03:54.920Z,101116.98
2019-06-07T08:05:58.919Z,101118.00
2019-06-07T08:08:01.529Z,101110.84
2019-06-07T08:10:04.555Z,101112.39
2019-06-07T08:12:06.676Z,101104.55
2019-06-07T08:14:09.293Z,101115.36
2019-06-07T08:16:15.681Z,101098.30
2019-06-07T08:18:17.471Z,101104.74
2019-06-07T08:20:19.284Z,101095.28
2019-06-07T08:22:22.401Z,101097.73
2019-06-07T08:24:24.606Z,101088.25
2019-06-07T08:26:26.590Z,101075.72
2019-06-07T08:28:28.587Z,101089.45
2019-06-07T08:32:34.686Z,101075.64
2019-06-07T08:34:37.897Z,101074.05
2019-06-07T08:36:42.522Z,101073.27
2019-06-07T08:38:48.347Z,101083.98
2019-06-07T08:40:58.471Z,101069.58
2019-06-07T08:43:10.282Z,101062.53
2019-06-07T08:45:03.593Z,101067.30
2019-06-07T08:47:19.296Z,101048.92
2019-06-07T08:49:05.796Z,101050.10
2019-06-07T08:51:08.737Z,101054.84
2019-06-07T08:53:12.814Z,101062.09
2019-06-07T08:55:15.071Z,101041.52
2019-06-07T08:57:21.768Z,101052.23
2019-06-07T08:59:21.059Z,101046.11
2019-06-07T09:01:24.236Z,101045.30
2019-06-07T09:03:26.268Z,101037.84
2019-06-07T09:05:29.205Z,101036.05
2019-06-07T09:07:31.312Z,101025.48
2019-06-07T09:09:33.354Z,101008.16
2019-06-07T09:11:35.434Z,101013.97
2019-06-07T09:13:37.536Z,101015.36
2019-06-07T09:15:39.587Z,101010.00
2019-06-07T09:18:29.750Z,101010.10
2019-06-07T09:19:45.539Z,100987.94
2019-06-07T09:21:47.591Z,100978.20
2019-06-07T09:23:49.641Z,100983.73
2019-06-07T09:26:02.560Z,100976.78
2019-06-07T09:28:00.578Z,100976.74
2019-06-07T09:30:03.160Z,100976.60
2019-06-07T09:32:14.864Z,100983.78
2019-06-07T09:34:13.948Z,100982.83
2019-06-07T09:36:14.079Z,100976.55
2019-06-07T09:38:25.487Z,100978.84
2019-06-07T09:40:27.878Z,100981.34
2019-06-07T09:42:29.897Z,100969.89
2019-06-07T09:44:31.950Z,100977.44
2019-06-07T09:46:33.882Z,100966.27
2019-06-07T09:50:39.894Z,100965.47
2019-06-07T09:52:58.085Z,100950.03
2019-06-07T09:56:51.068Z,100939.84
2019-06-07T09:58:54.212Z,100939.92
2019-06-07T10:00:59.279Z,100933.25
2019-06-07T10:03:13.709Z,100942.58
2019-06-07T10:05:08.207Z,100927.17
2019-06-07T10:07:27.155Z,100931.48
2019-06-07T10:11:17.546Z,100912.22
2019-06-07T10:13:19.609Z,100906.15
2019-06-07T10:15:21.622Z,100905.84
2019-06-07T10:17:23.601Z,100897.91
2019-06-07T10:19:25.589Z,100890.14
2019-06-07T10:21:27.587Z,100896.92
2019-06-07T10:23:29.615Z,100890.81
2019-06-07T10:25:31.738Z,100887.48
2019-06-07T10:27:33.723Z,100880.77
2019-06-07T10:29:35.833Z,100886.84
2019-06-07T10:31:37.882Z,100870.23
2019-06-07T10:33:40.089Z,100860.72
2019-06-07T10:35:42.099Z,100868.14
2019-06-07T10:37:44.113Z,100855.70
2019-06-07T10:39:49.181Z,100853.31
2019-06-07T10:41:50.128Z,100854.30
2019-06-07T10:43:52.140Z,100842.31
2019-06-07T10:45:54.246Z,100850.45
2019-06-07T10:47:56.347Z,100844.47
2019-06-07T10:49:58.349Z,100848.83
2019-06-07T10:52:03.330Z,100838.65
2019-06-07T10:54:10.785Z,100832.34
2019-06-07T10:56:09.061Z,100825.68
2019-06-07T10:58:13.254Z,100820.64
2019-06-07T11:00:17.221Z,100815.77
2019-06-07T11:02:19.247Z,100807.64
2019-06-07T11:04:21.301Z,100800.54
2019-06-07T11:06:23.388Z,100793.35
2019-06-07T11:08:25.441Z,100788.94
2019-06-07T11:10:27.409Z,100795.03
2019-06-07T11:12:30.657Z,100784.51
2019-06-07T11:14:32.657Z,100778.15
2019-06-07T11:16:34.657Z,100760.17
2019-06-07T11:18:36.678Z,100774.83
2019-06-07T11:20:38.700Z,100762.87
2019-06-07T11:22:40.703Z,100758.22
2019-06-07T11:24:42.806Z,100760.24
2019-06-07T11:26:44.853Z,100758.91
2019-06-07T11:28:46.902Z,100750.92
2019-06-07T11:30:48.978Z,100738.52
2019-06-07T11:32:51.184Z,100746.13
2019-06-07T11:34:53.507Z,100744.33
2019-06-07T11:36:55.651Z,100736.73
2019-06-07T11:38:58.000Z,100740.32
2019-06-07T11:41:00.024Z,100738.82
2019-06-07T11:43:02.412Z,100738.05
2019-06-07T11:45:05.724Z,100734.50
2019-06-07T11:47:08.256Z,100738.63
2019-06-07T11:49:10.863Z,100719.09
2019-06-07T11:51:14.908Z,100720.00
2019-06-07T11:53:17.192Z,100718.39
2019-06-07T11:55:19.306Z,100707.58
2019-06-07T11:57:21.338Z,100709.06
2019-06-07T11:59:23.335Z,100696.45
2019-06-07T12:01:25.342Z,100707.21
2019-06-07T12:03:27.345Z,100704.42
2019-06-07T12:05:29.547Z,100702.99
2019-06-07T12:07:31.607Z,100688.30
2019-06-07T12:09:33.623Z,100703.09
2019-06-07T12:11:35.901Z,100701.28
2019-06-07T12:13:37.940Z,100704.11
2019-06-07T12:15:39.936Z,100704.20
2019-06-07T12:17:41.965Z,100699.66
2019-06-07T12:19:44.097Z,100709.52
2019-06-07T12:21:46.128Z,100713.92
2019-06-07T12:23:48.260Z,100706.31
2019-06-07T12:25:51.364Z,100705.22
2019-06-07T12:27:53.646Z,100707.87
2019-06-07T12:29:55.637Z,100697.48
2019-06-07T12:31:57.676Z,100693.95
2019-06-07T12:33:59.732Z,100698.78
2019-06-07T12:36:02.438Z,100706.80
2019-06-07T12:38:04.605Z,100696.93
2019-06-07T12:40:08.475Z,100691.17
2019-06-07T12:42:12.412Z,100687.36
2019-06-07T12:44:16.569Z,100688.25
2019-06-07T12:46:26.366Z,100687.97
2019-06-07T12:48:26.136Z,100689.24
2019-06-07T12:50:41.869Z,100686.38
2019-06-07T12:52:32.292Z,100699.23
2019-06-07T12:54:35.852Z,100684.93
2019-06-07T12:56:37.857Z,100686.33
2019-06-07T12:58:40.093Z,100679.69
2019-06-07T13:00:42.129Z,100683.90
2019-06-07T13:02:44.148Z,100665.53
2019-06-07T13:04:46.238Z,100682.53
2019-06-07T13:06:48.259Z,100678.58
2019-06-07T13:08:50.291Z,100675.98
2019-06-07T13:10:52.374Z,100670.10
2019-06-07T13:12:54.484Z,100666.06
2019-06-07T13:14:56.519Z,100668.10
2019-06-07T13:16:58.775Z,100661.57
2019-06-07T13:19:02.255Z,100655.61
2019-06-07T13:21:04.304Z,100657.85
2019-06-07T13:23:06.353Z,100652.45
2019-06-07T13:25:08.790Z,100649.49
2019-06-07T13:27:11.906Z,100662.48
2019-06-07T13:29:14.056Z,100650.90
2019-06-07T13:31:16.511Z,100656.12
2019-06-07T13:33:21.412Z,100646.15
2019-06-07T13:35:23.823Z,100645.34
2019-06-07T13:37:27.723Z,100651.75
2019-06-07T13:39:30.007Z,100638.56
2019-06-07T13:41:42.501Z,100643.36
2019-06-07T13:43:37.886Z,100640.35
2019-06-07T13:45:40.225Z,100649.34
2019-06-07T13:47:42.264Z,100650.72
2019-06-07T13:49:44.322Z,100646.14
2019-06-07T13:51:46.477Z,100646.34
2019-06-07T13:53:48.538Z,100646.55
2019-06-07T13:55:50.965Z,100646.16
2019-06-07T13:57:52.525Z,100647.13
2019-06-07T13:59:54.468Z,100649.34
2019-06-07T14:01:56.502Z,100643.73
2019-06-07T14:03:58.680Z,100650.53
2019-06-07T14:06:00.828Z,100645.14
2019-06-07T14:08:03.206Z,100636.13
2019-06-07T14:10:05.539Z,100637.86
2019-06-07T14:12:07.793Z,100641.42
2019-06-07T14:14:09.846Z,100638.80
2019-06-07T14:16:13.456Z,100641.59
2019-06-07T14:18:15.560Z,100640.39
2019-06-07T14:20:17.807Z,100639.79
2019-06-07T14:22:20.543Z,100646.97
2019-06-07T14:24:23.009Z,100650.77
2019-06-07T14:26:25.251Z,100661.86
2019-06-07T14:28:30.821Z,100667.09
2019-06-07T14:30:32.675Z,100673.52
2019-06-07T14:32:35.220Z,100673.52
2019-06-07T14:34:37.374Z,100674.87
2019-06-07T14:36:40.530Z,100692.84
2019-06-07T14:38:42.746Z,100695.47
2019-06-07T14:43:15.406Z,100700.00
2019-06-07T14:45:17.857Z,100702.21
2019-06-07T14:47:19.692Z,100709.12
2019-06-07T14:49:21.834Z,100702.73
2019-06-07T14:51:24.244Z,100711.80
2019-06-07T14:53:26.653Z,100713.77
2019-06-07T14:55:29.002Z,100715.37
2019-06-07T14:57:31.120Z,100713.36
2019-06-07T14:59:34.896Z,100733.88
2019-06-07T15:01:36.990Z,100734.22
2019-06-07T15:03:39.305Z,100735.50
2019-06-07T15:05:41.385Z,100731.91
2019-06-07T15:07:43.417Z,100731.71
2019-06-07T15:09:45.710Z,100735.80
2019-06-07T15:11:47.765Z,100746.91
2019-06-07T15:13:49.775Z,100741.58
2019-06-07T15:15:51.845Z,100750.25
2019-06-07T15:17:53.923Z,100752.54
2019-06-07T15:19:55.979Z,100753.23
2019-06-07T15:21:58.015Z,100752.55
2019-06-07T15:24:00.221Z,100753.83
2019-06-07T15:26:02.314Z,100759.36
2019-06-07T15:28:04.360Z,100751.52
2019-06-07T15:30:10.264Z,100749.66
2019-06-07T15:32:10.953Z,100741.75
2019-06-07T15:34:12.973Z,100734.63
2019-06-07T15:36:15.175Z,100714.84
2019-06-07T15:38:17.170Z,100715.56
2019-06-07T15:40:19.761Z,100714.70
2019-06-07T15:42:22.075Z,100724.55
2019-06-07T15:44:24.083Z,100719.80
2019-06-07T15:46:26.523Z,100728.19
2019-06-07T15:48:29.722Z,100717.06
2019-06-07T15:50:32.365Z,100731.11
2019-06-07T15:52:35.824Z,100735.91
2019-06-07T15:54:38.491Z,100726.98
2019-06-07T15:56:41.411Z,100719.11
2019-06-07T15:58:43.864Z,100708.09
2019-06-07T16:00:49.754Z,100701.30
2019-06-07T16:02:53.095Z,100711.64
2019-06-07T16:04:55.510Z,100710.77
2019-06-07T16:06:58.004Z,100709.58
2019-06-07T16:09:00.054Z,100711.52
2019-06-07T16:11:04.371Z,100711.05
2019-06-07T16:13:06.332Z,100713.23
2019-06-07T16:15:09.133Z,100707.81
2019-06-07T16:17:11.409Z,100702.95
2019-06-07T16:19:14.088Z,100698.91
2019-06-07T16:21:16.608Z,100698.36
2019-06-07T16:23:18.868Z,100679.35
2019-06-07T16:25:21.278Z,100679.85
2019-06-07T16:27:23.582Z,100670.42
2019-06-07T16:29:27.300Z,100670.80
2019-06-07T16:31:29.911Z,100671.98
2019-06-07T16:33:32.316Z,100666.37
2019-06-07T16:35:36.939Z,100659.08
2019-06-07T16:37:40.666Z,100659.08
2019-06-07T16:39:44.755Z,100674.70
2019-06-07T16:41:48.846Z,100671.80
2019-06-07T16:43:51.474Z,100679.18
2019-06-07T16:45:53.575Z,100645.88
2019-06-07T16:47:55.620Z,100625.58
2019-06-07T16:49:57.787Z,100624.30
2019-06-07T16:51:59.923Z,100629.23
2019-06-07T16:54:02.237Z,100647.09
2019-06-07T16:56:05.048Z,100646.63
2019-06-07T16:58:07.111Z,100655.72
2019-06-07T17:00:10.005Z,100670.81
2019-06-07T17:02:12.086Z,100696.27
2019-06-07T17:04:14.292Z,100700.89
2019-06-07T17:06:16.474Z,100702.02
2019-06-07T17:08:18.623Z,100711.23
2019-06-07T17:10:20.950Z,100693.41
2019-06-07T17:12:22.975Z,100703.33
2019-06-07T17:14:24.987Z,100688.25
2019-06-07T17:16:27.053Z,100676.51
2019-06-07T17:18:29.168Z,100670.12
2019-06-07T17:20:31.223Z,100670.54
2019-06-07T17:22:33.343Z,100672.14
2019-06-07T17:24:35.391Z,100668.94
2019-06-07T17:26:37.451Z,100662.28
2019-06-07T17:28:39.730Z,100670.92
2019-06-07T17:30:41.873Z,100655.75
2019-06-07T17:32:53.820Z,100671.71
2019-06-07T17:34:50.645Z,100674.49
2019-06-07T17:36:52.723Z,100669.82
2019-06-07T17:38:54.770Z,100655.61
2019-06-07T17:40:56.827Z,100655.33
2019-06-07T17:42:59.099Z,100658.44
2019-06-07T17:45:01.318Z,100675.95
2019-06-07T17:47:03.347Z,100679.75
2019-06-07T17:49:05.493Z,100681.73
2019-06-07T17:51:07.578Z,100676.28
2019-06-07T17:53:09.613Z,100685.81
2019-06-07T17:55:11.804Z,100684.41
2019-06-07T17:57:13.912Z,100677.67
2019-06-07T17:59:15.995Z,100686.30
2019-06-07T18:01:18.019Z,100684.91
2019-06-07T18:03:21.218Z,100687.13
2019-06-07T18:05:23.341Z,100676.00
2019-06-07T18:07:26.011Z,100679.92
2019-06-07T18:09:28.434Z,100676.69
2019-06-07T18:11:30.146Z,100680.16
2019-06-07T18:13:32.193Z,100677.66
2019-06-07T18:15:41.719Z,100668.58
2019-06-07T18:17:44.937Z,100675.25
2019-06-07T18:19:47.086Z,100663.11
2019-06-07T18:21:50.108Z,100668.72
2019-06-07T18:23:54.725Z,100669.31
2019-06-07T18:25:56.878Z,100659.16
2019-06-07T18:27:59.034Z,100663.40
2019-06-07T18:30:10.867Z,100671.41
2019-06-07T18:32:06.232Z,100680.66
2019-06-07T18:34:08.293Z,100674.94
2019-06-07T18:36:10.371Z,100676.33
2019-06-07T18:38:12.429Z,100667.66
2019-06-07T18:40:14.593Z,100668.63
2019-06-07T18:42:16.766Z,100658.23
2019-06-07T18:44:21.856Z,100664.84
2019-06-07T18:46:23.015Z,100673.55
2019-06-07T18:48:25.149Z,100667.46
2019-06-07T18:50:27.340Z,100674.78
2019-06-07T18:52:32.124Z,100668.85
2019-06-07T18:54:34.455Z,100665.34
2019-06-07T18:56:36.134Z,100655.98
2019-06-07T18:58:38.126Z,100663.14
2019-06-07T19:00:40.145Z,100657.16
2019-06-07T19:02:42.474Z,100662.34
2019-06-07T19:04:44.590Z,100672.22
2019-06-07T19:06:46.668Z,100665.00
2019-06-07T19:08:51.823Z,100673.81
2019-06-07T19:10:52.707Z,100669.96
2019-06-07T19:12:55.288Z,100672.59
2019-06-07T19:14:57.631Z,100675.30
2019-06-07T19:16:59.822Z,100671.99
2019-06-07T19:19:01.824Z,100676.04
2019-06-07T19:21:03.875Z,100677.48
2019-06-07T19:23:05.890Z,100682.02
2019-06-07T19:25:08.319Z,100667.55
2019-06-07T19:27:10.435Z,100677.92
2019-06-07T19:29:12.505Z,100681.00
2019-06-07T19:31:14.576Z,100672.52
2019-06-07T19:33:16.681Z,100675.64
2019-06-07T19:35:18.889Z,100674.41
2019-06-07T19:37:20.966Z,100676.59
2019-06-07T19:39:23.132Z,100663.55
2019-06-07T19:41:25.193Z,100661.20
2019-06-07T19:43:27.475Z,100656.82
2019-06-07T19:45:31.536Z,100653.15
2019-06-07T19:47:33.648Z,100652.12
2019-06-07T19:49:35.748Z,100654.99
2019-06-07T19:51:37.780Z,100655.11
2019-06-07T19:53:39.894Z,100659.15
2019-06-07T19:55:41.925Z,100664.10
2019-06-07T19:57:43.983Z,100660.37
2019-06-07T19:59:46.084Z,100655.56
2019-06-07T20:01:48.161Z,100648.78
2019-06-07T20:03:50.223Z,100629.03
2019-06-07T20:05:52.287Z,100629.03
2019-06-07T20:07:54.538Z,100644.76
2019-06-07T20:09:56.634Z,100646.58
2019-06-07T20:11:58.652Z,100648.23
2019-06-07T20:14:00.854Z,100642.98
2019-06-07T20:16:03.074Z,100642.25
2019-06-07T20:18:05.548Z,100642.34
2019-06-07T20:20:08.930Z,100637.61
2019-06-07T20:22:11.088Z,100642.69
2019-06-07T20:24:26.386Z,100646.15
2019-06-07T20:26:17.211Z,100642.57
2019-06-07T20:28:19.283Z,100637.61
2019-06-07T20:30:21.711Z,100646.43
2019-06-07T20:32:23.307Z,100638.39
2019-06-07T20:34:25.400Z,100630.58
2019-06-07T20:36:27.511Z,100630.28
2019-06-07T20:38:29.595Z,100637.30
2019-06-07T20:40:31.641Z,100639.48
2019-06-07T20:42:33.740Z,100642.25
2019-06-07T20:44:35.841Z,100644.16
2019-06-07T20:46:38.111Z,100632.41
2019-06-07T20:48:40.244Z,100638.66
2019-06-07T20:50:42.321Z,100634.13
2019-06-07T20:52:44.363Z,100628.68
2019-06-07T20:54:46.447Z,100628.68
2019-06-07T20:56:48.545Z,100631.67
2019-06-07T20:58:50.663Z,100623.19
2019-06-07T21:00:52.748Z,100629.87
2019-06-07T21:02:54.813Z,100623.89
2019-06-07T21:04:56.899Z,100616.16
2019-06-07T21:06:59.228Z,100616.00
2019-06-07T21:09:01.561Z,100620.63
2019-06-07T21:11:05.813Z,100615.98
2019-06-07T21:13:08.211Z,100619.41
2019-06-07T21:15:14.054Z,100600.20
2019-06-07T21:17:13.940Z,100606.19
2019-06-07T21:19:16.168Z,100607.52
2019-06-07T21:21:18.228Z,100608.91
2019-06-07T21:23:20.351Z,100600.58
2019-06-07T21:25:22.338Z,100604.52
2019-06-07T21:27:24.467Z,100608.91
2019-06-07T21:29:26.491Z,100599.26
2019-06-07T21:31:28.522Z,100597.44
2019-06-07T21:33:30.795Z,100599.63
2019-06-07T21:35:32.907Z,100603.86
2019-06-07T21:37:35.296Z,100589.55
2019-06-07T21:39:37.424Z,100593.92
2019-06-07T21:41:39.510Z,100596.70
2019-06-07T21:43:41.605Z,100590.47
2019-06-07T21:45:44.457Z,100583.04
2019-06-07T21:47:46.930Z,100583.31
2019-06-07T21:49:48.634Z,100582.08
2019-06-07T21:51:50.738Z,100589.87
2019-06-07T21:53:52.844Z,100570.59
2019-06-07T21:55:54.900Z,100577.97
2019-06-07T21:57:56.950Z,100575.99
2019-06-07T21:59:59.063Z,100577.81
2019-06-07T22:02:01.115Z,100579.05
2019-06-07T22:04:03.561Z,100594.69
2019-06-07T22:06:07.509Z,100604.29
2019-06-07T22:08:10.396Z,100591.67
2019-06-07T22:10:14.480Z,100593.05
2019-06-07T22:12:16.607Z,100607.77
2019-06-07T22:14:19.435Z,100591.95
2019-06-07T22:16:29.030Z,100600.78
2019-06-07T22:18:25.610Z,100594.72
2019-06-07T22:20:27.651Z,100600.56
2019-06-07T22:22:29.670Z,100581.77
2019-06-07T22:24:31.716Z,100592.85
2019-06-07T22:26:33.769Z,100591.15
2019-06-07T22:28:35.774Z,100593.00
2019-06-07T22:30:37.802Z,100591.62
2019-06-07T22:32:39.823Z,100585.70
2019-06-07T22:34:41.956Z,100583.41
2019-06-07T22:36:43.990Z,100574.61
2019-06-07T22:38:46.043Z,100586.70
2019-06-07T22:40:48.053Z,100588.45
2019-06-07T22:42:50.123Z,100563.28
2019-06-07T22:44:52.337Z,100586.27
2019-06-07T22:46:54.416Z,100585.08
2019-06-07T22:48:56.676Z,100583.76
2019-06-07T22:51:00.063Z,100572.02
2019-06-07T22:53:02.095Z,100576.83
2019-06-07T22:55:04.477Z,100579.77
2019-06-07T22:57:16.675Z,100577.00
2019-06-07T22:59:20.505Z,100579.81
2019-06-07T23:01:22.843Z,100587.48
2019-06-07T23:03:24.877Z,100585.48
2019-06-07T23:05:26.924Z,100586.87
2019-06-07T23:07:28.962Z,100583.14
2019-06-07T23:09:30.982Z,100585.99
2019-06-07T23:11:33.119Z,100585.70
2019-06-07T23:13:35.132Z,100583.07
2019-06-07T23:15:37.768Z,100575.78
2019-06-07T23:17:39.779Z,100569.58
2019-06-07T23:19:41.864Z,100563.09
2019-06-07T23:21:43.936Z,100569.58
2019-06-07T23:23:46.073Z,100566.70
2019-06-07T23:25:48.129Z,100554.96
2019-06-07T23:27:50.161Z,100561.34
2019-06-07T23:29:52.188Z,100554.33
2019-06-07T23:31:54.227Z,100562.21
2019-06-07T23:33:56.235Z,100558.71
2019-06-07T23:35:58.337Z,100560.09
2019-06-07T23:38:00.440Z,100561.81
2019-06-07T23:41:13.287Z,100564.95